createdAt,value
2019-01-12T00:01:35.618Z,18.70
2019-01-12T00:04:04.517Z,17.23
2019-01-12T00:06:32.917Z,22.63
2019-01-12T00:09:01.113Z,21.93
2019-01-12T00:11:29.364Z,22.07
2019-01-12T00:13:57.640Z,19.90
2019-01-12T00:16:25.870Z,21.00
2019-01-12T00:18:54.483Z,20.90
2019-01-12T00:21:23.058Z,21.17
2019-01-12T00:23:51.335Z,20.07
2019-01-12T00:26:19.763Z,21.73
2019-01-12T00:28:48.004Z,20.30
2019-01-12T00:31:16.154Z,19.77
2019-01-12T00:33:44.387Z,20.37
2019-01-12T00:36:12.880Z,19.40
2019-01-12T00:38:41.054Z,15.53
2019-01-12T00:41:09.224Z,18.27
2019-01-12T00:43:37.377Z,17.50
2019-01-12T00:46:05.605Z,19.17
2019-01-12T00:48:33.769Z,16.17
2019-01-12T00:51:01.915Z,18.13
2019-01-12T00:53:30.110Z,17.20
2019-01-12T00:55:58.313Z,17.50
2019-01-12T00:58:26.457Z,17.40
2019-01-12T01:00:54.610Z,19.63
2019-01-12T01:03:22.819Z,18.57
2019-01-12T01:05:50.979Z,17.83
2019-01-12T01:08:19.173Z,16.90
2019-01-12T01:10:47.321Z,17.70
2019-01-12T01:13:15.808Z,18.43
2019-01-12T01:15:44.031Z,18.47
2019-01-12T01:18:12.558Z,18.20
2019-01-12T01:20:40.869Z,17.73
2019-01-12T01:23:09.351Z,17.10
2019-01-12T01:25:38.801Z,17.93
2019-01-12T01:28:07.137Z,18.50
2019-01-12T01:30:35.320Z,16.57
2019-01-12T01:33:03.569Z,16.90
2019-01-12T01:35:31.905Z,17.37
2019-01-12T01:38:00.068Z,17.83
2019-01-12T01:40:28.264Z,18.50
2019-01-12T01:42:56.408Z,18.17
2019-01-12T01:45:24.826Z,24.67
2019-01-12T01:47:53.012Z,18.37
2019-01-12T01:50:21.150Z,17.37
2019-01-12T01:52:49.357Z,17.67
2019-01-12T01:55:17.652Z,17.17
2019-01-12T01:57:45.899Z,19.20
2019-01-12T02:00:15.302Z,17.47
2019-01-12T02:02:43.480Z,18.60
2019-01-12T02:05:11.699Z,16.97
2019-01-12T02:07:39.906Z,17.60
2019-01-12T02:10:09.645Z,17.83
2019-01-12T02:12:37.881Z,16.97
2019-01-12T02:15:07.800Z,17.83
2019-01-12T02:17:35.975Z,19.00
2019-01-12T02:20:04.875Z,15.83
2019-01-12T02:22:33.527Z,15.33
2019-01-12T02:25:01.710Z,15.43
2019-01-12T02:27:29.943Z,14.17
2019-01-12T02:29:58.281Z,14.53
2019-01-12T02:32:26.819Z,13.77
2019-01-12T02:34:55.711Z,15.53
2019-01-12T02:37:23.989Z,14.23
2019-01-12T02:39:52.171Z,13.03
2019-01-12T02:42:20.395Z,13.07
2019-01-12T02:44:48.580Z,13.80
2019-01-12T02:47:16.753Z,13.17
2019-01-12T02:49:44.963Z,15.07
2019-01-12T02:52:13.469Z,13.60
2019-01-12T02:54:42.023Z,14.20
2019-01-12T02:57:10.280Z,14.27
2019-01-12T02:59:38.412Z,13.30
2019-01-12T03:02:06.570Z,13.33
2019-01-12T03:04:34.736Z,12.50
2019-01-12T03:07:02.913Z,12.17
2019-01-12T03:09:31.145Z,11.87
2019-01-12T03:11:59.728Z,14.57
2019-01-12T03:14:28.311Z,13.40
2019-01-12T03:16:56.554Z,13.27
2019-01-12T03:19:24.738Z,12.37
2019-01-12T03:21:52.908Z,11.20
2019-01-12T03:24:21.056Z,12.83
2019-01-12T03:26:49.249Z,12.27
2019-01-12T03:29:17.505Z,11.33
2019-01-12T03:31:45.673Z,11.90
2019-01-12T03:34:14.038Z,13.00
2019-01-12T03:36:42.301Z,13.73
2019-01-12T03:39:10.901Z,12.40
2019-01-12T03:41:39.140Z,12.07
2019-01-12T03:44:07.460Z,10.97
2019-01-12T03:46:35.707Z,11.03
2019-01-12T03:49:04.415Z,12.40
2019-01-12T03:51:32.971Z,11.90
2019-01-12T03:54:01.234Z,11.37
2019-01-12T03:56:29.475Z,9.70
2019-01-12T03:58:57.616Z,10.57
2019-01-12T04:01:25.775Z,11.27
2019-01-12T04:03:54.040Z,11.20
2019-01-12T04:06:22.533Z,11.27
2019-01-12T04:08:51.102Z,10.83
2019-01-12T04:11:19.608Z,10.37
2019-01-12T04:13:47.782Z,10.70
2019-01-12T04:16:16.033Z,12.70
2019-01-12T04:18:44.252Z,10.73
2019-01-12T04:21:12.405Z,9.97
2019-01-12T04:23:40.595Z,9.70
2019-01-12T04:26:09.223Z,11.07
2019-01-12T04:28:37.733Z,10.80
2019-01-12T04:31:05.873Z,10.67
2019-01-12T04:33:34.060Z,9.97
2019-01-12T04:36:02.261Z,11.07
2019-01-12T04:38:30.429Z,9.63
2019-01-12T04:40:58.619Z,12.20
2019-01-12T04:43:26.873Z,9.83
2019-01-12T04:45:55.099Z,10.90
2019-01-12T04:48:23.585Z,13.73
2019-01-12T04:50:52.160Z,9.77
2019-01-12T04:53:20.320Z,11.53
2019-01-12T04:55:48.490Z,9.23
2019-01-12T04:58:16.649Z,9.83
2019-01-12T05:00:44.836Z,10.37
2019-01-12T05:03:13.049Z,10.53
2019-01-12T05:05:41.187Z,9.37
2019-01-12T05:08:09.435Z,10.47
2019-01-12T05:10:37.739Z,11.03
2019-01-12T05:13:06.240Z,10.60
2019-01-12T05:15:34.799Z,8.10
2019-01-12T05:18:02.985Z,10.90
2019-01-12T05:20:31.240Z,9.97
2019-01-12T05:22:59.477Z,9.97
2019-01-12T05:25:27.631Z,9.53
2019-01-12T05:27:55.951Z,9.23
2019-01-12T05:30:24.102Z,11.27
2019-01-12T05:32:52.690Z,9.97
2019-01-12T05:35:21.313Z,10.87
2019-01-12T05:37:49.562Z,10.10
2019-01-12T05:40:17.780Z,9.40
2019-01-12T05:42:46.318Z,9.97
2019-01-12T05:45:14.977Z,11.63
2019-01-12T05:47:43.188Z,11.37
2019-01-12T05:50:12.145Z,8.93
2019-01-12T05:52:40.361Z,11.57
2019-01-12T05:55:09.425Z,20.10
2019-01-12T05:57:37.651Z,11.67
2019-01-12T06:00:07.428Z,11.57
2019-01-12T06:02:35.643Z,13.40
2019-01-12T06:05:04.490Z,13.80
2019-01-12T06:07:32.735Z,12.47
2019-01-12T06:10:01.555Z,12.50
2019-01-12T06:12:29.742Z,12.57
2019-01-12T06:14:57.912Z,12.17
2019-01-12T06:17:26.091Z,13.20
2019-01-12T06:19:54.285Z,10.63
2019-01-12T06:22:22.521Z,12.23
2019-01-12T06:24:50.714Z,11.77
2019-01-12T06:27:18.876Z,11.80
2019-01-12T06:29:47.427Z,11.57
2019-01-12T06:32:15.658Z,11.03
2019-01-12T06:34:43.822Z,12.50
2019-01-12T06:37:12.089Z,10.93
2019-01-12T06:39:40.248Z,11.40
2019-01-12T06:42:08.407Z,10.90
2019-01-12T06:44:36.558Z,10.93
2019-01-12T06:47:04.791Z,10.67
2019-01-12T06:49:32.971Z,10.53
2019-01-12T06:52:01.208Z,11.00
2019-01-12T06:54:29.423Z,10.33
2019-01-12T06:56:57.581Z,9.40
2019-01-12T06:59:25.842Z,11.13
2019-01-12T07:01:54.088Z,10.60
2019-01-12T07:04:22.688Z,9.87
2019-01-12T07:06:50.919Z,9.53
2019-01-12T07:09:19.072Z,9.63
2019-01-12T07:11:47.246Z,10.73
2019-01-12T07:14:15.807Z,10.30
2019-01-12T07:16:44.370Z,10.30
2019-01-12T07:19:12.867Z,10.37
2019-01-12T07:21:41.467Z,10.40
2019-01-12T07:24:09.693Z,11.50
2019-01-12T07:26:37.884Z,11.50
2019-01-12T07:29:06.024Z,9.77
2019-01-12T07:31:34.486Z,13.50
2019-01-12T07:34:03.276Z,10.17
2019-01-12T07:36:31.459Z,13.07
2019-01-12T07:38:59.885Z,9.67
2019-01-12T07:41:28.020Z,11.37
2019-01-12T07:43:56.209Z,10.50
2019-01-12T07:46:24.683Z,11.10
2019-01-12T07:48:53.409Z,12.17
2019-01-12T07:51:21.927Z,11.40
2019-01-12T07:53:50.335Z,10.57
2019-01-12T07:56:24.422Z,10.63
2019-01-12T07:58:48.430Z,11.23
2019-01-12T08:01:16.622Z,11.07
2019-01-12T08:03:45.133Z,11.30
2019-01-12T08:06:13.707Z,12.17
2019-01-12T08:08:41.964Z,11.50
2019-01-12T08:11:10.443Z,10.27
2019-01-12T08:13:38.588Z,11.40
2019-01-12T08:16:06.781Z,11.03
2019-01-12T08:18:34.915Z,11.57
2019-01-12T08:21:03.462Z,10.00
2019-01-12T08:23:31.985Z,13.03
2019-01-12T08:26:00.248Z,9.50
2019-01-12T08:28:28.465Z,10.60
2019-01-12T08:30:56.653Z,11.87
2019-01-12T08:33:24.872Z,10.47
2019-01-12T08:35:53.200Z,11.77
2019-01-12T08:38:21.481Z,10.47
2019-01-12T08:40:49.772Z,14.90
2019-01-12T08:43:18.650Z,17.77
2019-01-12T08:45:47.257Z,17.70
2019-01-12T08:48:15.570Z,15.63
2019-01-12T08:50:43.735Z,15.20
2019-01-12T08:53:12.383Z,13.80
2019-01-12T08:55:40.633Z,16.97
2019-01-12T08:58:09.203Z,16.43
2019-01-12T09:00:37.443Z,38.73
2019-01-12T09:03:05.639Z,45.37
2019-01-12T09:05:33.887Z,49.03
2019-01-12T09:08:02.394Z,45.47
2019-01-12T09:10:30.637Z,47.73
2019-01-12T09:12:59.427Z,49.27
2019-01-12T09:15:27.738Z,45.23
2019-01-12T09:17:56.159Z,32.33
2019-01-12T09:20:24.410Z,36.30
2019-01-12T09:22:52.968Z,24.43
2019-01-12T09:25:21.270Z,29.97
2019-01-12T09:27:49.461Z,34.37
2019-01-12T09:30:18.580Z,37.67
2019-01-12T09:32:47.240Z,39.43
2019-01-12T09:35:15.667Z,37.47
2019-01-12T09:37:44.202Z,48.43
2019-01-12T09:40:17.183Z,36.63
2019-01-12T09:42:46.231Z,38.90
2019-01-12T09:45:15.482Z,29.33
2019-01-12T09:47:44.094Z,35.23
2019-01-12T09:50:13.813Z,37.60
2019-01-12T09:52:42.104Z,30.40
2019-01-12T09:55:10.419Z,23.13
2019-01-12T09:57:38.590Z,22.77
2019-01-12T10:00:08.731Z,18.77
2019-01-12T10:02:36.881Z,14.30
2019-01-12T10:05:05.853Z,11.93
2019-01-12T10:07:33.991Z,13.97
2019-01-12T10:10:02.236Z,12.27
2019-01-12T10:12:30.817Z,10.27
2019-01-12T10:14:58.981Z,9.00
2019-01-12T10:17:27.147Z,10.13
2019-01-12T10:19:55.627Z,9.43
2019-01-12T10:22:28.568Z,9.20
2019-01-12T10:24:54.780Z,9.87
2019-01-12T10:27:23.005Z,8.17
2019-01-12T10:29:51.206Z,9.13
2019-01-12T10:32:19.711Z,9.60
2019-01-12T10:34:48.303Z,8.33
2019-01-12T10:37:16.880Z,7.33
2019-01-12T10:39:45.069Z,8.70
2019-01-12T10:42:13.258Z,7.70
2019-01-12T10:44:42.202Z,7.70
2019-01-12T10:47:10.781Z,7.33
2019-01-12T10:49:39.355Z,8.63
2019-01-12T10:52:07.570Z,9.00
2019-01-12T10:54:35.766Z,9.07
2019-01-12T10:57:05.696Z,10.90
2019-01-12T10:59:34.222Z,12.50
2019-01-12T11:02:02.793Z,28.97
2019-01-12T11:04:31.223Z,27.43
2019-01-12T11:06:59.761Z,45.00
2019-01-12T11:09:28.346Z,44.60
2019-01-12T11:11:56.944Z,53.17
2019-01-12T11:14:25.496Z,47.67
2019-01-12T11:16:53.688Z,51.77
2019-01-12T11:19:21.946Z,53.10
2019-01-12T11:21:50.194Z,44.70
2019-01-12T11:24:18.393Z,46.73
2019-01-12T11:26:46.634Z,46.73
2019-01-12T11:29:14.912Z,47.73
2019-01-12T11:31:43.162Z,41.60
2019-01-12T11:34:11.691Z,31.47
2019-01-12T11:36:39.943Z,29.20
2019-01-12T11:39:08.540Z,22.10
2019-01-12T11:41:36.748Z,15.33
2019-01-12T11:44:05.019Z,12.87
2019-01-12T11:46:33.186Z,13.10
2019-01-12T11:49:01.462Z,12.77
2019-01-12T11:51:32.960Z,10.23
2019-01-12T11:54:01.721Z,11.23
2019-01-12T11:56:30.308Z,10.00
2019-01-12T11:58:58.465Z,9.70
2019-01-12T12:01:26.662Z,8.97
2019-01-12T12:03:54.908Z,8.33
2019-01-12T12:06:23.117Z,7.73
2019-01-12T12:08:51.345Z,8.83
2019-01-12T12:11:19.878Z,9.53
2019-01-12T12:13:48.395Z,9.47
2019-01-12T12:16:16.914Z,7.83
2019-01-12T12:18:45.110Z,6.17
2019-01-12T12:21:13.356Z,9.30
2019-01-12T12:23:41.563Z,7.77
2019-01-12T12:26:09.827Z,9.23
2019-01-12T12:28:38.022Z,8.17
2019-01-12T12:31:06.534Z,7.63
2019-01-12T12:33:35.075Z,8.10
2019-01-12T12:36:04.135Z,11.77
2019-01-12T12:38:32.646Z,8.37
2019-01-12T12:41:01.627Z,7.67
2019-01-12T12:43:29.832Z,8.30
2019-01-12T12:45:58.091Z,7.47
2019-01-12T12:48:26.254Z,6.80
2019-01-12T12:50:54.494Z,7.03
2019-01-12T12:53:23.031Z,7.67
2019-01-12T12:55:51.579Z,10.23
2019-01-12T12:58:19.702Z,9.07
2019-01-12T13:00:47.848Z,8.90
2019-01-12T13:03:16.024Z,9.03
2019-01-12T13:05:44.198Z,8.80
2019-01-12T13:08:12.438Z,9.23
2019-01-12T13:10:40.615Z,9.40
2019-01-12T13:13:10.587Z,8.90
2019-01-12T13:15:39.125Z,9.33
2019-01-12T13:18:07.834Z,11.57
2019-01-12T13:20:36.603Z,9.50
2019-01-12T13:23:04.827Z,9.00
2019-01-12T13:25:33.446Z,10.27
2019-01-12T13:28:01.910Z,10.47
2019-01-12T13:30:30.144Z,12.17
2019-01-12T13:32:58.300Z,11.87
2019-01-12T13:35:26.533Z,11.07
2019-01-12T13:37:54.868Z,11.03
2019-01-12T13:40:23.915Z,11.60
2019-01-12T13:42:52.632Z,12.93
2019-01-12T13:45:21.286Z,11.50
2019-01-12T13:47:50.490Z,11.83
2019-01-12T13:50:19.788Z,12.50
2019-01-12T13:52:48.364Z,11.80
2019-01-12T13:55:17.286Z,13.33
2019-01-12T13:57:47.753Z,12.60
2019-01-12T14:00:19.716Z,13.50
2019-01-12T14:02:47.936Z,14.27
2019-01-12T14:05:16.332Z,13.17
2019-01-12T14:07:44.551Z,15.17
2019-01-12T14:10:16.377Z,12.87
2019-01-12T14:12:44.919Z,13.23
2019-01-12T14:15:14.213Z,11.97
2019-01-12T14:17:42.821Z,14.63
2019-01-12T14:20:20.295Z,13.50
2019-01-12T14:22:49.207Z,11.10
2019-01-12T14:25:17.424Z,13.60
2019-01-12T14:27:45.701Z,11.67
2019-01-12T14:30:15.622Z,11.07
2019-01-12T14:32:44.258Z,12.23
2019-01-12T14:35:14.831Z,11.70
2019-01-12T14:37:43.436Z,10.97
2019-01-12T14:40:15.428Z,11.00
2019-01-12T14:42:43.720Z,11.23
2019-01-12T14:45:13.424Z,11.33
2019-01-12T14:47:41.585Z,10.60
2019-01-12T14:50:11.093Z,10.63
2019-01-12T14:52:39.655Z,9.47
2019-01-12T14:55:13.425Z,10.93
2019-01-12T14:57:41.614Z,10.70
2019-01-12T15:00:11.361Z,9.30
2019-01-12T15:02:39.503Z,11.03
2019-01-12T15:05:11.583Z,9.60
2019-01-12T15:07:40.190Z,9.40
2019-01-12T15:10:10.225Z,8.40
2019-01-12T15:12:38.382Z,9.80
2019-01-12T15:15:08.282Z,7.63
2019-01-12T15:17:36.496Z,8.47
2019-01-12T15:20:20.751Z,8.80
2019-01-12T15:22:48.968Z,9.07
2019-01-12T15:25:17.213Z,9.07
2019-01-12T15:27:45.701Z,9.50
2019-01-12T15:30:18.490Z,8.23
2019-01-12T15:32:46.627Z,7.53
2019-01-12T15:35:15.115Z,8.70
2019-01-12T15:37:43.548Z,8.27
2019-01-12T15:40:13.387Z,8.53
2019-01-12T15:42:41.555Z,7.60
2019-01-12T15:45:13.152Z,7.60
2019-01-12T15:47:41.301Z,8.57
2019-01-12T15:50:10.991Z,8.17
2019-01-12T15:52:39.215Z,9.93
2019-01-12T15:55:07.425Z,9.40
2019-01-12T15:57:35.583Z,8.40
2019-01-12T16:00:05.257Z,9.30
2019-01-12T16:02:39.707Z,7.10
2019-01-12T16:05:03.832Z,8.70
2019-01-12T16:07:31.983Z,8.57
2019-01-12T16:10:00.406Z,8.20
2019-01-12T16:12:28.880Z,6.83
2019-01-12T16:14:57.406Z,8.20
2019-01-12T16:17:25.589Z,6.90
2019-01-12T16:19:53.737Z,7.27
2019-01-12T16:22:21.918Z,9.50
2019-01-12T16:24:50.122Z,8.17
2019-01-12T16:27:18.309Z,9.63
2019-01-12T16:29:46.556Z,8.07
2019-01-12T16:32:15.031Z,8.00
2019-01-12T16:34:43.201Z,9.00
2019-01-12T16:37:11.702Z,8.50
2019-01-12T16:39:39.831Z,8.27
2019-01-12T16:42:07.987Z,9.37
2019-01-12T16:44:36.125Z,9.07
2019-01-12T16:47:04.593Z,6.53
2019-01-12T16:49:32.814Z,7.57
2019-01-12T16:52:00.961Z,7.93
2019-01-12T16:54:29.459Z,9.47
2019-01-12T16:56:57.621Z,7.63
2019-01-12T16:59:25.757Z,8.07
2019-01-12T17:01:53.910Z,7.23
2019-01-12T17:04:22.077Z,6.30
2019-01-12T17:06:50.261Z,7.30
2019-01-12T17:09:18.484Z,7.60
2019-01-12T17:11:46.635Z,7.40
2019-01-12T17:14:14.873Z,6.77
2019-01-12T17:16:43.266Z,7.07
2019-01-12T17:19:11.504Z,7.43
2019-01-12T17:21:39.649Z,9.77
2019-01-12T17:24:07.834Z,6.67
2019-01-12T17:26:36.024Z,7.53
2019-01-12T17:29:04.245Z,7.17
2019-01-12T17:31:32.677Z,7.50
2019-01-12T17:34:00.842Z,6.47
2019-01-12T17:36:29.303Z,7.00
2019-01-12T17:38:57.473Z,6.00
2019-01-12T17:41:25.645Z,6.07
2019-01-12T17:43:53.812Z,7.57
2019-01-12T17:46:21.991Z,7.27
2019-01-12T17:48:50.473Z,8.33
2019-01-12T17:51:19.037Z,5.87
2019-01-12T17:53:47.195Z,9.47
2019-01-12T17:56:15.422Z,10.43
2019-01-12T17:58:44.514Z,11.33
2019-01-12T18:01:13.242Z,14.83
2019-01-12T18:03:41.503Z,22.00
2019-01-12T18:06:09.707Z,21.37
2019-01-12T18:08:38.308Z,28.53
2019-01-12T18:11:06.449Z,35.47
2019-01-12T18:13:34.952Z,34.13
2019-01-12T18:16:03.436Z,26.30
2019-01-12T18:18:31.564Z,19.33
2019-01-12T18:20:59.726Z,24.10
2019-01-12T18:23:27.900Z,18.30
2019-01-12T18:25:56.713Z,15.80
2019-01-12T18:28:25.248Z,12.77
2019-01-12T18:30:53.867Z,10.90
2019-01-12T18:33:22.008Z,7.27
2019-01-12T18:35:50.160Z,6.90
2019-01-12T18:38:18.295Z,9.03
2019-01-12T18:40:46.765Z,7.13
2019-01-12T18:43:14.966Z,9.40
2019-01-12T18:45:43.207Z,6.13
2019-01-12T18:48:11.776Z,7.13
2019-01-12T18:50:40.011Z,7.20
2019-01-12T18:53:08.173Z,5.47
2019-01-12T18:55:36.411Z,6.10
2019-01-12T18:58:04.608Z,5.60
2019-01-12T19:00:33.240Z,5.70
2019-01-12T19:03:01.798Z,5.73
2019-01-12T19:05:30.188Z,4.90
2019-01-12T19:07:58.420Z,5.87
2019-01-12T19:10:26.687Z,4.57
2019-01-12T19:12:54.942Z,5.00
2019-01-12T19:15:25.982Z,6.03
2019-01-12T19:17:54.231Z,4.63
2019-01-12T19:20:22.714Z,4.80
2019-01-12T19:22:50.864Z,4.60
2019-01-12T19:25:19.056Z,4.00
2019-01-12T19:27:47.199Z,4.87
2019-01-12T19:30:19.264Z,4.27
2019-01-12T19:32:48.304Z,5.57
2019-01-12T19:35:16.562Z,3.97
2019-01-12T19:37:45.182Z,4.43
2019-01-12T19:40:14.429Z,4.17
2019-01-12T19:42:43.011Z,4.07
2019-01-12T19:45:12.204Z,5.30
2019-01-12T19:47:40.775Z,3.80
2019-01-12T19:50:10.987Z,4.17
2019-01-12T19:52:39.157Z,3.93
2019-01-12T19:55:07.686Z,3.57
2019-01-12T19:57:36.200Z,2.60
2019-01-12T20:00:05.960Z,3.60
2019-01-12T20:02:34.100Z,2.47
2019-01-12T20:05:02.288Z,3.30
2019-01-12T20:07:30.509Z,3.57
2019-01-12T20:09:59.014Z,3.17
2019-01-12T20:12:27.469Z,3.33
2019-01-12T20:14:55.636Z,4.00
2019-01-12T20:17:23.822Z,3.17
2019-01-12T20:19:51.991Z,3.03
2019-01-12T20:22:20.156Z,3.17
2019-01-12T20:24:48.296Z,2.70
2019-01-12T20:27:16.779Z,3.53
2019-01-12T20:29:44.931Z,2.70
2019-01-12T20:32:16.584Z,2.63
2019-01-12T20:34:44.719Z,2.93
2019-01-12T20:37:14.411Z,2.90
2019-01-12T20:39:56.151Z,3.47
2019-01-12T20:42:28.960Z,3.17
2019-01-12T20:45:15.310Z,3.40
2019-01-12T20:48:00.308Z,3.27
2019-01-12T20:50:33.195Z,6.13
2019-01-12T20:53:02.882Z,3.40
2019-01-12T20:55:35.347Z,4.47
2019-01-12T20:58:21.839Z,4.60
2019-01-12T21:00:57.350Z,4.23
2019-01-12T21:03:39.613Z,2.93
2019-01-12T21:06:18.200Z,3.47
2019-01-12T21:09:05.043Z,4.17
2019-01-12T21:11:49.150Z,3.70
2019-01-12T21:14:21.667Z,3.00
2019-01-12T21:16:49.868Z,3.40
2019-01-12T21:19:18.017Z,4.13
2019-01-12T21:21:46.485Z,3.30
2019-01-12T21:24:14.648Z,2.47
2019-01-12T21:26:42.851Z,3.67
2019-01-12T21:29:11.036Z,3.93
2019-01-12T21:31:39.245Z,2.40
2019-01-12T21:34:07.851Z,2.90
2019-01-12T21:36:35.994Z,2.87
2019-01-12T21:39:05.695Z,2.57
2019-01-12T21:41:33.943Z,2.50
2019-01-12T21:44:02.344Z,3.10
2019-01-12T21:46:30.865Z,2.70
2019-01-12T21:48:59.008Z,2.03
2019-01-12T21:51:27.263Z,2.17
2019-01-12T21:53:55.508Z,2.43
2019-01-12T21:56:23.753Z,2.20
2019-01-12T21:58:51.911Z,2.23
2019-01-12T22:01:20.057Z,2.57
2019-01-12T22:03:48.617Z,2.07
2019-01-12T22:06:17.109Z,2.40
2019-01-12T22:08:45.246Z,2.50
2019-01-12T22:11:13.426Z,2.60
2019-01-12T22:13:41.653Z,2.60
2019-01-12T22:16:09.806Z,3.23
2019-01-12T22:18:37.981Z,3.17
2019-01-12T22:21:06.696Z,3.23
2019-01-12T22:23:34.861Z,2.77
2019-01-12T22:26:03.141Z,3.10
2019-01-12T22:28:31.385Z,5.40
2019-01-12T22:30:59.747Z,5.43
2019-01-12T22:33:27.948Z,4.40
2019-01-12T22:35:56.201Z,5.57
2019-01-12T22:38:24.886Z,5.67
2019-01-12T22:40:53.061Z,6.83
2019-01-12T22:43:21.274Z,3.53
2019-01-12T22:45:49.563Z,4.33
2019-01-12T22:48:17.785Z,3.33
2019-01-12T22:50:46.105Z,3.20
2019-01-12T22:53:14.336Z,3.00
2019-01-12T22:55:42.529Z,2.73
2019-01-12T22:58:10.773Z,3.30
2019-01-12T23:00:56.201Z,3.17
2019-01-12T23:03:24.464Z,3.53
2019-01-12T23:05:52.795Z,2.80
2019-01-12T23:08:21.034Z,2.67
2019-01-12T23:10:49.650Z,3.53
2019-01-12T23:13:18.095Z,3.50
2019-01-12T23:15:46.331Z,2.47
2019-01-12T23:18:15.299Z,3.07
2019-01-12T23:20:43.589Z,2.17
2019-01-12T23:23:11.830Z,3.43
2019-01-12T23:25:40.010Z,3.30
2019-01-12T23:28:08.234Z,2.17
2019-01-12T23:30:36.540Z,2.40
2019-01-12T23:33:05.272Z,3.43
2019-01-12T23:35:33.513Z,2.87
2019-01-12T23:38:02.238Z,2.60
2019-01-12T23:40:30.463Z,3.10
2019-01-12T23:42:58.723Z,3.93
2019-01-12T23:45:27.300Z,3.87
2019-01-12T23:47:55.629Z,3.07
2019-01-12T23:50:23.792Z,2.97
2019-01-12T23:52:52.382Z,3.33
2019-01-12T23:55:20.601Z,3.17
2019-01-12T23:57:48.817Z,2.73
